Time;durP1;ratioP1;P1;durP2;ratioP2;P2;SDS_P1;SDS_P2;PMS_P1;PMS_P2;Temp;Humidity;BMP_temperature;BMP_pressure;BME280_temperature;BME280_humidity;BME280_pressure;Samples;Min_cycle;Max_cycle;Signal;HPM_P1;HPM_P2
2023/10/27 00:01:41;;;;;;;5.78;2.55;;;;;;;14.77;100.00;92191.69;5067733;28;20821;-83
2023/10/27 00:04:08;;;;;;;7.28;2.53;;;;;;;14.83;100.00;92193.22;5065938;28;20102;-82
2023/10/27 00:06:35;;;;;;;6.95;2.38;;;;;;;14.70;100.00;92187.53;5067605;28;20936;-82
2023/10/27 00:09:02;;;;;;;7.30;2.78;;;;;;;14.72;100.00;92202.75;5065891;28;20836;-82
2023/10/27 00:11:30;;;;;;;9.63;3.55;;;;;;;14.52;100.00;92185.44;5069974;28;20137;-82
2023/10/27 00:13:56;;;;;;;5.15;2.25;;;;;;;14.59;100.00;92193.72;5060074;28;20608;-82
2023/10/27 00:16:24;;;;;;;10.88;2.85;;;;;;;14.58;100.00;92192.16;5067067;28;20053;-81
2023/10/27 00:18:50;;;;;;;8.23;4.07;;;;;;;14.54;100.00;92175.66;5064762;28;20098;-83
2023/10/27 00:21:17;;;;;;;6.97;3.03;;;;;;;14.36;100.00;92158.84;5066640;28;20906;-82
2023/10/27 00:23:44;;;;;;;9.38;3.13;;;;;;;14.56;100.00;92173.56;5067629;28;20106;-83
2023/10/27 00:26:10;;;;;;;7.85;3.28;;;;;;;14.49;100.00;92173.06;5065029;28;20544;-85
2023/10/27 00:28:39;;;;;;;12.85;3.17;;;;;;;14.53;100.00;92192.16;5068037;28;20052;-85
2023/10/27 00:31:05;;;;;;;11.48;3.38;;;;;;;14.53;100.00;92192.94;5069493;28;20139;-84
2023/10/27 00:33:34;;;;;;;9.82;3.47;;;;;;;14.55;100.00;92175.38;5069727;28;20850;-83
2023/10/27 00:36:01;;;;;;;9.10;2.90;;;;;;;14.58;100.00;92168.91;5065013;28;20044;-84
2023/10/27 00:38:28;;;;;;;10.63;3.15;;;;;;;14.52;100.00;92152.66;5069417;28;20086;-85
2023/10/27 00:40:54;;;;;;;9.45;3.08;;;;;;;14.57;100.00;92162.19;5069331;28;20461;-84
2023/10/27 00:43:21;;;;;;;5.88;2.70;;;;;;;14.40;100.00;92128.88;5069189;28;20048;-84
2023/10/27 00:45:51;;;;;;;9.05;2.97;;;;;;;14.56;100.00;92148.50;5066562;28;20090;-85
2023/10/27 00:48:19;;;;;;;7.15;2.95;;;;;;;14.49;100.00;92152.38;5064949;28;20049;-84
2023/10/27 00:50:46;;;;;;;6.18;2.60;;;;;;;14.46;100.00;92152.91;5064801;28;20099;-83
2023/10/27 00:53:14;;;;;;;8.23;3.60;;;;;;;14.66;100.00;92180.53;5068007;28;20717;-83
2023/10/27 00:55:42;;;;;;;13.98;3.92;;;;;;;14.68;100.00;92184.41;5063774;28;20399;-83
2023/10/27 00:58:09;;;;;;;7.45;2.85;;;;;;;14.73;100.00;92185.44;5068800;28;20049;-83
2023/10/27 01:00:36;;;;;;;8.07;3.53;;;;;;;14.66;100.00;92176.16;5063395;28;20094;-83
2023/10/27 01:03:05;;;;;;;6.70;2.50;;;;;;;14.68;100.00;92194.75;5065311;28;20045;-83
2023/10/27 01:05:32;;;;;;;9.07;3.22;;;;;;;14.52;100.00;92167.34;5064389;28;20072;-83
2023/10/27 01:07:59;;;;;;;7.25;3.30;;;;;;;14.50;100.00;92201.22;5068491;28;20470;-84
2023/10/27 01:10:26;;;;;;;7.00;3.17;;;;;;;14.28;100.00;92185.97;5066084;28;20496;-81
2023/10/27 01:12:53;;;;;;;4.63;2.90;;;;;;;14.45;100.00;92200.44;5068338;28;20070;-81
2023/10/27 01:15:19;;;;;;;9.70;3.33;;;;;;;14.39;100.00;92184.16;5068413;28;20048;-86
2023/10/27 01:17:46;;;;;;;6.07;2.78;;;;;;;14.46;100.00;92197.59;5068038;28;20500;-86
2023/10/27 01:20:15;;;;;;;8.57;4.10;;;;;;;14.42;100.00;92183.66;5064765;28;20045;-87
2023/10/27 01:22:45;;;;;;;8.68;3.83;;;;;;;14.57;100.00;92196.56;5066975;28;20082;-88
2023/10/27 01:25:12;;;;;;;9.18;3.40;;;;;;;14.60;100.00;92199.66;5068092;28;20128;-84
2023/10/27 01:27:39;;;;;;;8.43;2.95;;;;;;;14.55;100.00;92206.38;5064588;28;20062;-86
2023/10/27 01:30:07;;;;;;;10.65;3.47;;;;;;;14.33;100.00;92183.38;5068363;28;20048;-84
2023/10/27 01:32:34;;;;;;;8.40;2.90;;;;;;;14.52;100.00;92200.94;5067803;28;20429;-87
2023/10/27 01:35:01;;;;;;;6.20;2.78;;;;;;;14.53;100.00;92199.91;5061910;28;20090;-86
2023/10/27 01:37:28;;;;;;;6.47;2.63;;;;;;;14.61;100.00;92203.78;5068085;28;20048;-86
2023/10/27 01:39:56;;;;;;;9.10;2.90;;;;;;;14.64;100.00;92200.69;5060173;28;20390;-86
2023/10/27 01:42:23;;;;;;;13.30;2.90;;;;;;;14.72;100.00;92209.75;5062712;28;20098;-86
2023/10/27 01:44:50;;;;;;;8.45;3.10;;;;;;;14.76;100.00;92203.81;5068106;28;20132;-85
2023/10/27 01:47:17;;;;;;;5.82;3.25;;;;;;;14.82;100.00;92195.03;5063566;28;20090;-86
2023/10/27 01:49:44;;;;;;;8.23;2.88;;;;;;;14.83;100.00;92191.38;5066981;28;20048;-85
2023/10/27 01:52:10;;;;;;;5.97;2.58;;;;;;;14.82;100.00;92189.09;5067870;28;20048;-84
2023/10/27 01:54:37;;;;;;;8.43;3.85;;;;;;;14.89;100.00;92193.97;5067713;28;20048;-88
2023/10/27 01:57:05;;;;;;;9.90;2.80;;;;;;;14.90;100.00;92190.38;5060562;28;20060;-87
2023/10/27 01:59:32;;;;;;;6.85;2.80;;;;;;;14.92;100.00;92193.47;5064729;28;20044;-84
2023/10/27 02:01:59;;;;;;;6.78;3.33;;;;;;;14.85;100.00;92172.28;5063026;28;20447;-86
2023/10/27 02:04:25;;;;;;;4.25;2.42;;;;;;;15.00;100.00;92179.22;5063250;28;20055;-86
2023/10/27 02:06:52;;;;;;;6.80;3.13;;;;;;;14.99;100.00;92195.78;5063573;28;20098;-85
2023/10/27 02:09:19;;;;;;;6.72;2.92;;;;;;;15.01;100.00;92188.53;5064934;28;20056;-84
2023/10/27 02:11:46;;;;;;;6.13;3.00;;;;;;;14.99;100.00;92188.78;5067376;28;20432;-84
2023/10/27 02:14:14;;;;;;;8.77;2.88;;;;;;;14.89;100.00;92168.91;5064746;28;20048;-87
2023/10/27 02:16:41;;;;;;;9.70;3.20;;;;;;;14.96;100.00;92179.75;5062735;28;20493;-86
2023/10/27 02:19:08;;;;;;;9.13;3.40;;;;;;;15.02;100.00;92179.72;5062821;28;20056;-86
2023/10/27 02:21:35;;;;;;;11.68;4.88;;;;;;;15.03;100.00;92173.50;5065490;28;20117;-86
2023/10/27 02:24:02;;;;;;;16.60;4.50;;;;;;;15.04;100.00;92182.84;5062944;28;20052;-87
2023/10/27 02:26:28;;;;;;;16.48;4.30;;;;;;;15.01;100.00;92176.38;5065804;28;20162;-85
2023/10/27 02:28:55;;;;;;;9.38;3.70;;;;;;;14.91;100.00;92160.88;5062755;28;20053;-85
2023/10/27 02:31:23;;;;;;;9.05;3.25;;;;;;;15.07;100.00;92184.91;5065063;28;20488;-85
2023/10/27 02:33:50;;;;;;;16.00;3.83;;;;;;;15.08;100.00;92191.59;5065303;28;20089;-85
2023/10/27 02:36:17;;;;;;;18.25;5.35;;;;;;;14.90;100.00;92157.53;5066789;28;20666;-84
2023/10/27 02:38:43;;;;;;;13.20;3.42;;;;;;;15.12;100.00;92182.28;5061901;28;20057;-84
2023/10/27 02:41:11;;;;;;;8.98;3.35;;;;;;;15.04;100.00;92173.25;5061185;28;20098;-85
2023/10/27 02:43:39;;;;;;;9.30;3.05;;;;;;;15.08;100.00;92184.63;5066761;28;20550;-83
2023/10/27 02:46:06;;;;;;;8.93;3.55;;;;;;;15.06;100.00;92175.59;5065739;28;20075;-83
2023/10/27 02:48:34;;;;;;;8.60;3.67;;;;;;;15.14;100.00;92169.09;5065437;28;20049;-84
2023/10/27 02:51:01;;;;;;;7.32;3.03;;;;;;;15.11;100.00;92167.81;5067088;28;20382;-83
2023/10/27 02:53:27;;;;;;;8.90;3.03;;;;;;;15.04;100.00;92154.41;5058959;28;20213;-85
2023/10/27 02:55:54;;;;;;;8.40;3.17;;;;;;;15.10;100.00;92166.28;5066610;28;20473;-83
2023/10/27 02:58:21;;;;;;;8.23;3.33;;;;;;;15.16;100.00;92179.97;5062861;28;20082;-83
2023/10/27 03:00:47;;;;;;;7.35;3.10;;;;;;;15.09;100.00;92173.25;5066354;28;20406;-83
2023/10/27 03:03:14;;;;;;;9.07;3.70;;;;;;;15.15;100.00;92181.78;5066390;28;20094;-83
2023/10/27 03:05:42;;;;;;;7.63;3.03;;;;;;;15.19;100.00;92187.97;5064246;28;20048;-83
2023/10/27 03:08:09;;;;;;;12.38;3.63;;;;;;;15.12;100.00;92182.28;5062267;28;20086;-83
2023/10/27 03:10:36;;;;;;;7.47;3.00;;;;;;;15.10;100.00;92174.78;5066354;28;20053;-83
2023/10/27 03:13:08;;;;;;;8.43;2.97;;;;;;;15.12;100.00;92171.94;5062806;28;20045;-85
2023/10/27 03:16:11;;;;;;;7.25;3.20;;;;;;;14.96;100.00;92146.13;5064995;28;20844;-85
2023/10/27 03:21:51;;;;;;;6.38;3.10;;;;;;;15.02;100.00;92172.75;4965854;28;20057;-83
2023/10/27 03:24:47;;;;;;;6.55;2.65;;;;;;;14.88;100.00;92145.88;5003621;28;20387;-83
2023/10/27 03:27:17;;;;;;;7.53;2.70;;;;;;;14.99;100.00;92167.34;5062648;28;20107;-84
2023/10/27 03:29:45;;;;;;;8.38;3.10;;;;;;;14.97;100.00;92165.00;5066430;28;20057;-85
2023/10/27 03:32:12;;;;;;;6.22;3.42;;;;;;;15.02;100.00;92166.81;5060659;28;20515;-85
2023/10/27 03:34:39;;;;;;;9.18;3.40;;;;;;;15.06;100.00;92166.03;5064393;28;20121;-87
2023/10/27 03:37:07;;;;;;;6.30;2.60;;;;;;;15.04;100.00;92154.41;5066445;28;20048;-87
2023/10/27 03:39:34;;;;;;;7.93;3.20;;;;;;;15.12;100.00;92161.59;5061655;28;20106;-86
2023/10/27 03:42:00;;;;;;;8.98;3.25;;;;;;;15.13;100.00;92163.16;5064524;28;20044;-86
2023/10/27 03:44:27;;;;;;;7.95;3.28;;;;;;;15.19;100.00;92161.34;5063491;28;20049;-86
2023/10/27 03:46:54;;;;;;;7.60;3.40;;;;;;;15.23;100.00;92162.38;5062192;28;20145;-87
2023/10/27 03:49:20;;;;;;;7.78;3.17;;;;;;;14.94;100.00;92124.16;5065520;28;20060;-85
2023/10/27 03:51:47;;;;;;;7.60;2.78;;;;;;;15.15;100.00;92155.91;5070063;28;20102;-85
2023/10/27 03:54:15;;;;;;;11.25;3.50;;;;;;;15.30;100.00;92169.81;5065497;28;20044;-85
2023/10/27 03:56:42;;;;;;;10.27;3.00;;;;;;;15.34;100.00;92171.63;5069391;28;20048;-85
2023/10/27 03:59:10;;;;;;;7.30;3.28;;;;;;;15.36;100.00;92164.38;5069894;28;20094;-85
2023/10/27 04:01:37;;;;;;;8.90;3.20;;;;;;;15.34;100.00;92147.56;5063573;28;20053;-83
2023/10/27 04:04:04;;;;;;;12.80;3.20;;;;;;;15.17;100.00;92114.25;5067817;28;20045;-84
2023/10/27 04:06:31;;;;;;;8.00;2.60;;;;;;;15.25;100.00;92128.44;5069610;28;20044;-84
2023/10/27 04:08:58;;;;;;;9.68;3.97;;;;;;;15.23;100.00;92120.97;5069560;28;20101;-83
2023/10/27 04:11:26;;;;;;;17.02;6.78;;;;;;;15.11;100.00;92105.75;5062018;28;20059;-83
2023/10/27 04:13:53;;;;;;;30.63;11.27;;;;;;;15.15;100.00;92109.34;5065830;28;20052;-81
2023/10/27 04:16:19;;;;;;;25.60;10.50;;;;;;;15.09;100.00;92100.84;5068016;28;20121;-81
2023/10/27 04:18:46;;;;;;;37.22;14.57;;;;;;;15.10;100.00;92104.22;5069601;28;20048;-81
2023/10/27 04:21:13;;;;;;;20.15;8.50;;;;;;;15.08;100.00;92104.47;5068818;28;20075;-84
2023/10/27 04:23:40;;;;;;;16.20;7.88;;;;;;;14.93;100.00;92096.75;5067541;28;20041;-84
2023/10/27 04:26:07;;;;;;;18.50;8.82;;;;;;;14.85;100.00;92067.03;5064521;28;20102;-83
2023/10/27 04:28:35;;;;;;;16.25;8.07;;;;;;;15.04;100.00;92095.69;5068451;28;20044;-83
2023/10/27 04:31:02;;;;;;;16.70;6.15;;;;;;;15.14;100.00;92107.78;5068261;28;20041;-86
2023/10/27 04:33:29;;;;;;;13.07;4.63;;;;;;;15.08;100.00;92101.09;5069596;28;20121;-86
2023/10/27 04:35:56;;;;;;;10.50;3.20;;;;;;;15.15;100.00;92100.81;5066596;28;20080;-86
2023/10/27 04:38:23;;;;;;;8.02;3.10;;;;;;;15.19;100.00;92107.00;5068674;28;20451;-86
2023/10/27 04:40:51;;;;;;;7.80;3.03;;;;;;;15.20;100.00;92111.94;5062871;28;20052;-86
2023/10/27 04:43:18;;;;;;;6.38;3.10;;;;;;;15.25;100.00;92110.34;5061835;28;20049;-86
2023/10/27 04:45:47;;;;;;;7.18;3.33;;;;;;;15.27;100.00;92111.63;5067916;28;20090;-86
2023/10/27 04:48:14;;;;;;;8.40;2.90;;;;;;;15.28;100.00;92108.00;5069124;28;20048;-86
2023/10/27 04:50:41;;;;;;;8.38;3.20;;;;;;;14.93;100.00;92069.09;5065118;28;20052;-86
2023/10/27 04:53:08;;;;;;;8.98;2.83;;;;;;;15.20;100.00;92109.34;5068688;28;20052;-86
2023/10/27 04:55:35;;;;;;;7.35;3.20;;;;;;;14.89;100.00;92055.16;5068554;28;20394;-86
2023/10/27 04:58:02;;;;;;;7.57;3.22;;;;;;;15.08;100.00;92083.78;5068765;28;20055;-86
2023/10/27 05:00:28;;;;;;;7.65;3.33;;;;;;;15.19;100.00;92097.44;5063341;28;20045;-84
2023/10/27 05:02:56;;;;;;;8.23;3.20;;;;;;;15.21;100.00;92095.38;5067403;28;20048;-86
2023/10/27 05:05:23;;;;;;;8.32;2.75;;;;;;;15.14;100.00;92076.75;5068708;28;20049;-87
2023/10/27 05:07:50;;;;;;;8.07;4.53;;;;;;;15.24;100.00;92081.13;5065730;28;20109;-86
2023/10/27 05:10:17;;;;;;;7.13;3.03;;;;;;;15.27;100.00;92090.16;5065295;28;20563;-83
2023/10/27 05:12:43;;;;;;;7.57;2.13;;;;;;;15.27;100.00;92090.94;5068497;28;20045;-84
2023/10/27 05:15:10;;;;;;;5.05;2.22;;;;;;;15.32;100.00;92077.22;5068060;28;20505;-84
2023/10/27 05:17:37;;;;;;;9.85;2.95;;;;;;;15.13;100.00;92051.94;5064748;28;20044;-82
2023/10/27 05:20:06;;;;;;;8.20;2.53;;;;;;;15.33;100.00;92082.09;5067712;28;20045;-82
2023/10/27 05:22:33;;;;;;;6.57;2.22;;;;;;;15.37;100.00;92079.78;5066200;28;20076;-83
2023/10/27 05:25:06;;;;;;;6.43;1.90;;;;;;;15.32;100.00;92067.63;5071212;28;20560;-83
2023/10/27 05:27:33;;;;;;;4.70;1.70;;;;;;;15.43;100.00;92070.94;5070104;28;20046;-83
2023/10/27 05:30:00;;;;;;;6.00;2.03;;;;;;;15.50;100.00;92084.34;5071116;28;20583;-84
2023/10/27 05:32:27;;;;;;;4.95;2.30;;;;;;;15.50;100.00;92079.16;5076481;28;20121;-83
2023/10/27 05:34:54;;;;;;;5.53;2.22;;;;;;;15.46;100.00;92067.03;5069733;28;20972;-83
2023/10/27 05:37:22;;;;;;;4.38;2.25;;;;;;;15.63;100.00;92090.75;5077283;28;20052;-83
2023/10/27 05:39:49;;;;;;;8.73;2.30;;;;;;;15.60;100.00;92099.03;5081554;28;20062;-83
2023/10/27 05:42:16;;;;;;;10.25;4.82;;;;;;;15.70;100.00;92103.38;5076147;28;20052;-84
2023/10/27 05:44:42;;;;;;;15.75;6.05;;;;;;;15.69;100.00;92101.06;5068916;28;20044;-83
2023/10/27 05:47:09;;;;;;;11.18;5.05;;;;;;;15.76;100.00;92111.91;5074467;28;20048;-83
2023/10/27 05:49:36;;;;;;;7.97;3.88;;;;;;;15.82;100.00;92125.56;5068696;28;20048;-84
2023/10/27 05:52:03;;;;;;;11.10;4.28;;;;;;;15.75;100.00;92112.94;5066555;28;20044;-86
2023/10/27 05:54:32;;;;;;;9.25;4.20;;;;;;;15.82;100.00;92117.78;5073370;28;20050;-85
2023/10/27 05:56:58;;;;;;;9.48;4.68;;;;;;;15.96;100.00;92138.75;5081188;28;20094;-85
2023/10/27 05:59:25;;;;;;;9.82;3.88;;;;;;;15.95;100.00;92135.38;5075039;28;20126;-83
2023/10/27 06:01:54;;;;;;;13.30;5.60;;;;;;;16.11;100.00;92156.00;5068726;28;20048;-82
2023/10/27 06:04:20;;;;;;;9.27;3.25;;;;;;;16.03;100.00;92139.97;5065093;28;20120;-82
2023/10/27 06:06:47;;;;;;;8.02;3.42;;;;;;;16.09;100.00;92132.94;5075241;28;20051;-82
2023/10/27 06:09:14;;;;;;;8.10;3.80;;;;;;;16.21;100.00;92139.59;5084347;28;20055;-83
2023/10/27 06:11:42;;;;;;;8.10;3.42;;;;;;;16.17;100.00;92124.56;5082426;28;20444;-83
2023/10/27 06:14:10;;;;;;;13.10;4.00;;;;;;;15.93;100.00;92090.84;5071103;28;20496;-82
2023/10/27 06:16:37;;;;;;;8.57;2.80;;;;;;;16.26;100.00;92117.00;5072411;28;20098;-82
2023/10/27 06:19:04;;;;;;;9.68;2.70;;;;;;;16.39;100.00;92114.84;5070969;28;20567;-85
2023/10/27 06:21:31;;;;;;;9.90;2.70;;;;;;;16.46;100.00;92123.06;5082009;28;20400;-83
2023/10/27 06:23:58;;;;;;;8.85;2.28;;;;;;;16.46;100.00;92112.69;5077430;28;20053;-82
2023/10/27 06:26:25;;;;;;;7.22;2.40;;;;;;;16.67;100.00;92126.25;5069728;28;20056;-82
2023/10/27 06:28:53;;;;;;;7.00;2.28;;;;;;;16.68;100.00;92129.63;5068116;28;20052;-83
2023/10/27 06:31:22;;;;;;;8.48;2.83;;;;;;;16.70;100.00;92130.88;5061099;28;20056;-83
2023/10/27 06:33:49;;;;;;;6.18;2.05;;;;;;;16.73;100.00;92114.00;5067417;28;20059;-82
2023/10/27 06:36:15;;;;;;;8.80;2.30;;;;;;;16.78;100.00;92126.16;5070211;28;20546;-83
2023/10/27 06:38:42;;;;;;;7.00;2.42;;;;;;;16.77;100.00;92119.41;5068268;28;20125;-82
2023/10/27 06:41:09;;;;;;;8.40;2.20;;;;;;;16.83;100.00;92133.88;5070196;28;20543;-84
2023/10/27 06:43:36;;;;;;;8.93;2.22;;;;;;;16.87;100.00;92129.69;5068486;28;20094;-83
2023/10/27 06:46:04;;;;;;;6.93;1.70;;;;;;;16.90;100.00;92121.34;5070792;28;20049;-82
2023/10/27 06:48:31;;;;;;;7.57;3.13;;;;;;;16.90;100.00;92126.53;5064305;28;20045;-81
2023/10/27 06:50:57;;;;;;;6.40;1.55;;;;;;;16.98;100.00;92132.94;5066739;28;20139;-82
2023/10/27 06:53:24;;;;;;;7.72;1.85;;;;;;;17.04;100.00;92141.47;5072127;28;20052;-82
2023/10/27 06:55:51;;;;;;;6.85;2.50;;;;;;;16.98;100.00;92125.16;5070062;28;20118;-83
2023/10/27 06:58:18;;;;;;;8.00;2.15;;;;;;;17.14;100.00;92149.16;5068815;28;20102;-83
2023/10/27 07:00:44;;;;;;;7.20;1.58;;;;;;;17.11;100.00;92128.94;5074681;28;20051;-82
2023/10/27 07:03:12;;;;;;;5.22;2.17;;;;;;;17.25;100.00;92129.03;5072116;28;20626;-84
2023/10/27 07:05:39;;;;;;;7.22;2.20;;;;;;;17.33;100.00;92118.06;5071794;28;20049;-84
2023/10/27 07:08:06;;;;;;;5.63;2.00;;;;;;;17.31;100.00;92114.19;5068540;28;20044;-81
2023/10/27 07:10:33;;;;;;;14.88;2.63;;;;;;;17.38;100.00;92109.44;5070791;28;20068;-82
2023/10/27 07:13:00;;;;;;;8.23;1.88;;;;;;;17.62;100.00;92131.97;5073699;28;20045;-82
2023/10/27 07:15:27;;;;;;;6.95;1.70;;;;;;;17.59;100.00;92112.53;5070116;28;20608;-82
2023/10/27 07:17:53;;;;;;;6.50;1.85;;;;;;;17.59;100.00;92104.75;5070290;28;20053;-82
2023/10/27 07:20:21;;;;;;;4.57;1.38;;;;;;;17.86;99.40;92124.13;5081116;28;20094;-82
2023/10/27 07:22:48;;;;;;;5.13;2.22;;;;;;;17.83;98.49;92123.91;5071736;28;20049;-82
2023/10/27 07:25:17;;;;;;;4.57;1.70;;;;;;;17.84;97.47;92113.25;5083034;28;20053;-82
2023/10/27 07:27:44;;;;;;;7.25;1.63;;;;;;;18.03;97.52;92141.03;5089782;28;20415;-82
2023/10/27 07:30:12;;;;;;;9.63;2.53;;;;;;;18.00;96.64;92133.78;5086345;28;20096;-82
2023/10/27 07:32:39;;;;;;;6.78;1.98;;;;;;;18.00;96.48;92119.00;5074978;28;20044;-83
2023/10/27 07:35:06;;;;;;;6.43;1.48;;;;;;;18.06;96.48;92134.50;5071829;28;20569;-83
2023/10/27 07:37:34;;;;;;;4.38;1.70;;;;;;;18.05;95.06;92138.16;5073950;28;20512;-83
2023/10/27 07:40:01;;;;;;;5.30;2.28;;;;;;;17.84;96.34;92115.06;5074047;28;20059;-83
2023/10/27 07:42:28;;;;;;;7.43;2.35;;;;;;;18.11;96.81;92150.06;5074026;28;20565;-82
2023/10/27 07:44:55;;;;;;;7.20;2.90;;;;;;;18.28;96.30;92152.91;5075181;28;20390;-82
2023/10/27 07:47:22;;;;;;;11.80;3.20;;;;;;;18.49;96.23;92155.19;5072037;28;20088;-83
2023/10/27 07:49:49;;;;;;;7.65;2.50;;;;;;;18.67;94.13;92158.03;5074971;28;20889;-82
2023/10/27 07:52:15;;;;;;;4.78;1.85;;;;;;;18.80;94.19;92144.28;5069706;28;20094;-82
2023/10/27 07:54:43;;;;;;;5.53;2.33;;;;;;;18.76;92.59;92137.34;5072737;28;20099;-82
2023/10/27 07:57:10;;;;;;;6.40;2.33;;;;;;;18.79;91.30;92139.38;5075738;28;20056;-81
2023/10/27 07:59:37;;;;;;;5.32;1.67;;;;;;;19.01;92.05;92163.94;5081446;28;20480;-81
2023/10/27 08:02:04;;;;;;;4.85;1.40;;;;;;;19.08;89.11;92151.38;5079497;28;20080;-81
2023/10/27 08:04:32;;;;;;;9.60;1.35;;;;;;;19.16;88.56;92145.50;5075334;28;20044;-80
2023/10/27 08:06:59;;;;;;;2.88;1.25;;;;;;;19.16;87.70;92145.50;5078603;28;20052;-80
2023/10/27 08:09:25;;;;;;;4.18;1.10;;;;;;;19.16;86.40;92142.88;5083115;28;20076;-80
2023/10/27 08:11:54;;;;;;;4.10;1.35;;;;;;;19.15;85.91;92127.56;5070791;28;20504;-79
2023/10/27 08:14:21;;;;;;;4.00;1.00;;;;;;;19.31;85.68;92131.41;5072515;28;20485;-80
2023/10/27 08:16:47;;;;;;;3.88;1.13;;;;;;;19.44;85.84;92122.03;5081407;28;20052;-81
2023/10/27 08:19:14;;;;;;;4.78;1.05;;;;;;;19.53;84.56;92132.53;5085803;28;20152;-81
2023/10/27 08:21:41;;;;;;;7.10;1.60;;;;;;;19.68;84.54;92131.47;5072304;28;20504;-81
2023/10/27 08:24:09;;;;;;;3.40;0.88;;;;;;;19.81;84.95;92129.13;5069067;28;20508;-80
2023/10/27 08:26:36;;;;;;;4.43;1.05;;;;;;;19.98;84.17;92118.88;5070236;28;20053;-80
2023/10/27 08:29:04;;;;;;;2.90;0.85;;;;;;;19.92;80.53;92111.41;5072315;28;20570;-83
2023/10/27 08:31:31;;;;;;;2.33;0.90;;;;;;;20.16;81.18;92132.03;5070026;28;20587;-82
2023/10/27 08:33:59;;;;;;;4.85;1.02;;;;;;;20.31;80.45;92138.72;5075332;28;20125;-81
2023/10/27 08:36:26;;;;;;;6.53;1.15;;;;;;;20.45;79.19;92137.91;5070816;28;20053;-80
2023/10/27 08:38:54;;;;;;;3.60;0.93;;;;;;;20.37;78.55;92129.72;5070511;28;20570;-82
2023/10/27 08:41:21;;;;;;;4.32;0.85;;;;;;;20.38;78.31;92125.28;5069319;28;20052;-81
2023/10/27 08:43:48;;;;;;;6.35;1.45;;;;;;;20.46;78.63;92142.03;5071160;28;20053;-80
2023/10/27 08:46:17;;;;;;;4.57;0.77;;;;;;;20.39;78.99;92151.06;5071198;28;20556;-81
2023/10/27 08:48:43;;;;;;;5.28;0.90;;;;;;;20.35;79.62;92137.06;5073218;28;20137;-82
2023/10/27 08:51:10;;;;;;;5.53;1.52;;;;;;;20.10;78.56;92136.59;5076031;28;20052;-81
2023/10/27 08:53:40;;;;;;;3.45;1.00;;;;;;;20.08;78.49;92135.34;5067401;28;20089;-80
2023/10/27 08:56:12;;;;;;;4.80;1.40;;;;;;;20.09;78.38;92144.72;5074277;28;20127;-82
2023/10/27 08:58:39;;;;;;;3.45;0.95;;;;;;;20.08;78.89;92148.38;5070083;28;20048;-81
2023/10/27 09:01:05;;;;;;;3.78;1.17;;;;;;;20.16;79.29;92155.50;5069750;28;20053;-82
2023/10/27 09:03:33;;;;;;;4.22;0.90;;;;;;;20.23;77.74;92150.63;5074317;28;20548;-81
2023/10/27 09:06:01;;;;;;;7.22;1.45;;;;;;;20.26;77.88;92154.47;5071334;28;20138;-81
2023/10/27 09:08:27;;;;;;;6.13;0.75;;;;;;;20.24;77.18;92146.97;5077500;28;20558;-81
2023/10/27 09:10:55;;;;;;;2.80;0.77;;;;;;;20.09;77.99;92142.09;5074032;28;20064;-83
2023/10/27 09:13:22;;;;;;;3.15;0.85;;;;;;;20.11;77.77;92145.19;5070563;28;20048;-81
2023/10/27 09:15:51;;;;;;;3.72;1.20;;;;;;;20.08;78.32;92145.78;5067605;28;20987;-81
2023/10/27 09:18:18;;;;;;;3.35;0.70;;;;;;;20.09;78.00;92131.69;5074292;28;20419;-81
2023/10/27 09:20:51;;;;;;;5.95;1.30;;;;;;;20.32;78.11;92145.47;5070197;28;20496;-81
2023/10/27 09:23:18;;;;;;;5.68;2.08;;;;;;;20.42;77.10;92140.03;5082989;28;20091;-82
2023/10/27 09:25:44;;;;;;;3.75;0.80;;;;;;;20.40;76.15;92130.94;5073164;28;20040;-83
2023/10/27 09:28:12;;;;;;;3.63;1.20;;;;;;;20.40;76.30;92136.16;5080320;28;20087;-82
2023/10/27 09:30:40;;;;;;;1.50;0.50;;;;;;;20.08;76.23;92070.94;5077908;28;20071;-82
2023/10/27 09:33:16;;;;;;;2.97;1.05;;;;;;;20.53;76.45;92117.09;5071012;28;20454;-82
2023/10/27 09:35:44;;;;;;;7.47;1.45;;;;;;;20.50;76.45;92109.84;5072745;28;20072;-81
2023/10/27 09:38:13;;;;;;;3.17;0.88;;;;;;;20.63;75.40;92121.28;5076854;28;20076;-82
2023/10/27 09:40:41;;;;;;;3.72;0.70;;;;;;;20.61;75.88;92109.59;5071575;28;20048;-81
2023/10/27 09:43:09;;;;;;;4.95;1.08;;;;;;;20.78;75.85;92109.69;5069189;28;20059;-81
2023/10/27 09:45:38;;;;;;;4.03;1.17;;;;;;;20.69;75.18;92107.03;5077615;28;20163;-82
2023/10/27 09:48:07;;;;;;;5.03;1.08;;;;;;;20.64;74.78;92096.72;5071027;28;20479;-80
2023/10/27 09:50:34;;;;;;;2.65;0.90;;;;;;;20.64;74.53;92083.69;5077568;28;20080;-81
2023/10/27 09:53:02;;;;;;;2.65;0.60;;;;;;;20.65;74.92;92082.59;5080758;28;20059;-81
2023/10/27 09:55:32;;;;;;;4.45;0.73;;;;;;;20.66;74.37;92076.34;5072750;28;20075;-80
2023/10/27 09:58:01;;;;;;;6.05;1.20;;;;;;;20.62;74.80;92072.00;5069855;28;20135;-82
2023/10/27 10:00:29;;;;;;;3.78;0.98;;;;;;;20.65;74.87;92061.72;5068184;28;20053;-81
2023/10/27 10:02:58;;;;;;;5.90;0.90;;;;;;;20.61;73.53;92066.03;5068133;28;20613;-82
2023/10/27 10:05:26;;;;;;;3.75;0.60;;;;;;;20.75;74.16;92073.75;5071455;28;20058;-83
2023/10/27 10:07:54;;;;;;;7.32;1.45;;;;;;;20.66;74.01;92071.13;5067578;28;20049;-82
2023/10/27 10:10:29;;;;;;;4.50;0.90;;;;;;;20.56;74.25;92066.16;5068961;28;20844;-83
2023/10/27 10:13:02;;;;;;;9.17;1.30;;;;;;;20.51;74.92;92054.00;5074545;28;20163;-83
2023/10/27 10:15:30;;;;;;;4.80;1.58;;;;;;;20.59;75.03;92054.34;5079616;28;20059;-82
2023/10/27 10:17:56;;;;;;;5.60;1.45;;;;;;;20.54;74.59;92071.66;5082979;28;20500;-82
2023/10/27 10:20:58;;;;;;;5.68;1.40;;;;;;;20.65;75.04;92084.47;5066664;28;20047;-81
2023/10/27 10:23:47;;;;;;;6.10;1.20;;;;;;;20.64;74.36;92070.63;5073313;28;20101;-83
2023/10/27 10:26:14;;;;;;;2.85;0.60;;;;;;;20.69;74.63;92075.72;5079080;28;20107;-82
2023/10/27 10:28:45;;;;;;;5.05;1.40;;;;;;;20.65;74.34;92060.97;5072754;28;20108;-81
2023/10/27 10:31:25;;;;;;;3.90;0.88;;;;;;;20.76;73.83;92058.84;5084133;28;20051;-82
2023/10/27 10:34:10;;;;;;;4.00;1.02;;;;;;;20.61;74.02;92026.13;5081516;28;20138;-83
2023/10/27 10:36:37;;;;;;;2.13;0.50;;;;;;;20.49;73.45;92021.44;5073196;28;20128;-82
2023/10/27 10:39:04;;;;;;;4.38;0.88;;;;;;;20.56;72.55;92030.38;5066996;28;20098;-81
2023/10/27 10:42:01;;;;;;;2.10;0.65;;;;;;;20.73;73.15;92062.09;5069231;28;20479;-81
2023/10/27 10:44:30;;;;;;;2.75;0.75;;;;;;;20.65;72.66;92040.84;5077126;28;20508;-83
2023/10/27 10:47:00;;;;;;;5.78;1.27;;;;;;;20.44;72.67;92027.59;5074926;28;20059;-81
2023/10/27 10:49:28;;;;;;;2.85;0.75;;;;;;;20.63;73.00;92044.84;5071857;28;20076;-83
2023/10/27 10:51:56;;;;;;;6.50;1.27;;;;;;;20.81;72.72;92067.34;5068778;28;20136;-81
2023/10/27 10:54:27;;;;;;;4.38;0.88;;;;;;;20.79;72.41;92055.66;5068345;28;20149;-81
2023/10/27 10:57:02;;;;;;;3.53;0.80;;;;;;;21.00;72.59;92065.56;5069633;28;20106;-81
2023/10/27 10:59:30;;;;;;;5.63;1.10;;;;;;;21.00;72.35;92066.34;5075416;28;20044;-82
2023/10/27 11:01:58;;;;;;;4.78;1.00;;;;;;;20.99;72.21;92056.97;5068099;28;20049;-81
2023/10/27 11:04:35;;;;;;;4.57;0.82;;;;;;;20.90;72.72;92048.34;5063130;28;20053;-83
2023/10/27 11:07:04;;;;;;;3.58;1.30;;;;;;;20.91;72.75;92068.94;5066114;28;20090;-85
2023/10/27 11:09:32;;;;;;;3.15;0.90;;;;;;;20.83;73.60;92069.66;5081094;28;20052;-82
2023/10/27 11:12:00;;;;;;;2.70;1.20;;;;;;;20.81;73.68;92061.34;5066788;28;20093;-83
2023/10/27 11:14:27;;;;;;;4.13;0.98;;;;;;;20.82;73.85;92060.25;5068816;28;20106;-86
2023/10/27 11:17:00;;;;;;;4.05;1.02;;;;;;;20.68;73.52;92053.31;5084202;28;20048;-84
2023/10/27 11:19:27;;;;;;;4.47;1.58;;;;;;;20.79;74.02;92051.19;5078518;28;20052;-83
2023/10/27 11:21:55;;;;;;;3.45;0.88;;;;;;;20.68;74.12;92029.03;5073401;28;20079;-82
2023/10/27 11:24:22;;;;;;;4.55;1.30;;;;;;;20.69;74.09;92025.38;5085567;28;20097;-82
2023/10/27 11:26:50;;;;;;;4.32;1.60;;;;;;;20.69;74.37;92017.56;5085260;28;20203;-86
2023/10/27 11:29:17;;;;;;;4.72;1.25;;;;;;;20.64;73.58;92018.44;5070967;28;20052;-83
2023/10/27 11:31:45;;;;;;;5.18;1.40;;;;;;;20.64;74.22;92004.66;5067214;28;20084;-82
2023/10/27 11:34:16;;;;;;;5.13;0.93;;;;;;;20.58;74.35;91974.53;5067741;28;20090;-82